<?xml version="1.0" encoding="UTF-8" standalone="no" ?>
<gpx xmlns="http://www.topografix.com/GPX/1/1" xmlns:xsi="http://www.w3.org/2001/XMLSchema-instance" xsi:schemaLocation="http://www.topografix.com/GPX/1/1 http://www.topografix.com/GPX/1/1/gpx.xsd" version="1.1" creator="VisuGPX - https://www.visugpx.com">
  <metadata>
    <name>Aubrac - mailhebiau et autour du village d\'Aubrac </name>
    <desc><![CDATA[Randonnée en 2 temps : mailhebiau ( point culminant ) et autour du village d\'Aubrac ]]></desc>
  </metadata>
  <trk>
    <name><![CDATA[ACTIVE LOG113926]]></name>
    <trkseg>
      <trkpt lat="44.57809" lon="3.06411">
        <ele>1379.13</ele>
        <time>2011-06-25T09:39:24Z</time>
      </trkpt>
      <trkpt lat="44.57802" lon="3.06421">
        <ele>1378.252</ele>
        <time>2011-06-25T09:40:50Z</time>
      </trkpt>
      <trkpt lat="44.57792" lon="3.06427">
        <ele>1379.556</ele>
        <time>2011-06-25T09:41:02Z</time>
      </trkpt>
      <trkpt lat="44.57785" lon="3.06437">
        <ele>1380.316</ele>
        <time>2011-06-25T09:41:13Z</time>
      </trkpt>
      <trkpt lat="44.57777" lon="3.06445">
        <ele>1380.653</ele>
        <time>2011-06-25T09:41:30Z</time>
      </trkpt>
      <trkpt lat="44.57771" lon="3.06454">
        <ele>1381.149</ele>
        <time>2011-06-25T09:41:52Z</time>
      </trkpt>
      <trkpt lat="44.57765" lon="3.06464">
        <ele>1382.231</ele>
        <time>2011-06-25T09:42:02Z</time>
      </trkpt>
      <trkpt lat="44.57757" lon="3.06475">
        <ele>1383.296</ele>
        <time>2011-06-25T09:42:13Z</time>
      </trkpt>
      <trkpt lat="44.57749" lon="3.06485">
        <ele>1384.127</ele>
        <time>2011-06-25T09:42:22Z</time>
      </trkpt>
      <trkpt lat="44.57742" lon="3.06493">
        <ele>1385.056</ele>
        <time>2011-06-25T09:42:33Z</time>
      </trkpt>
      <trkpt lat="44.57734" lon="3.06502">
        <ele>1385.558</ele>
        <time>2011-06-25T09:42:44Z</time>
      </trkpt>
      <trkpt lat="44.57726" lon="3.06508">
        <ele>1386.17</ele>
        <time>2011-06-25T09:43:03Z</time>
      </trkpt>
      <trkpt lat="44.57717" lon="3.06515">
        <ele>1386.395</ele>
        <time>2011-06-25T09:43:14Z</time>
      </trkpt>
      <trkpt lat="44.5771" lon="3.06525">
        <ele>1387.295</ele>
        <time>2011-06-25T09:43:30Z</time>
      </trkpt>
      <trkpt lat="44.57701" lon="3.06532">
        <ele>1387.75</ele>
        <time>2011-06-25T09:43:40Z</time>
      </trkpt>
      <trkpt lat="44.57694" lon="3.06543">
        <ele>1388.97</ele>
        <time>2011-06-25T09:43:49Z</time>
      </trkpt>
      <trkpt lat="44.57686" lon="3.06552">
        <ele>1388.703</ele>
        <time>2011-06-25T09:43:58Z</time>
      </trkpt>
      <trkpt lat="44.57678" lon="3.06563">
        <ele>1389.19</ele>
        <time>2011-06-25T09:44:07Z</time>
      </trkpt>
      <trkpt lat="44.57668" lon="3.06573">
        <ele>1389.35</ele>
        <time>2011-06-25T09:44:17Z</time>
      </trkpt>
      <trkpt lat="44.57658" lon="3.06583">
        <ele>1389.98</ele>
        <time>2011-06-25T09:44:28Z</time>
      </trkpt>
      <trkpt lat="44.57662" lon="3.06594">
        <ele>1388.838</ele>
        <time>2011-06-25T09:44:58Z</time>
      </trkpt>
      <trkpt lat="44.57665" lon="3.06598">
        <ele>1391.239</ele>
        <time>2011-06-25T09:45:24Z</time>
      </trkpt>
      <trkpt lat="44.57668" lon="3.06615">
        <ele>1389.701</ele>
        <time>2011-06-25T09:45:46Z</time>
      </trkpt>
      <trkpt lat="44.57667" lon="3.06632">
        <ele>1390.564</ele>
        <time>2011-06-25T09:45:55Z</time>
      </trkpt>
      <trkpt lat="44.57671" lon="3.06646">
        <ele>1390.323</ele>
        <time>2011-06-25T09:46:04Z</time>
      </trkpt>
      <trkpt lat="44.57674" lon="3.06663">
        <ele>1390.259</ele>
        <time>2011-06-25T09:46:13Z</time>
      </trkpt>
      <trkpt lat="44.57678" lon="3.06675">
        <ele>1391.041</ele>
        <time>2011-06-25T09:46:22Z</time>
      </trkpt>
      <trkpt lat="44.5768" lon="3.06686">
        <ele>1391.179</ele>
        <time>2011-06-25T09:46:31Z</time>
      </trkpt>
      <trkpt lat="44.57682" lon="3.067">
        <ele>1392.404</ele>
        <time>2011-06-25T09:46:41Z</time>
      </trkpt>
      <trkpt lat="44.57684" lon="3.06715">
        <ele>1392.985</ele>
        <time>2011-06-25T09:46:49Z</time>
      </trkpt>
      <trkpt lat="44.57683" lon="3.0673">
        <ele>1393.291</ele>
        <time>2011-06-25T09:46:58Z</time>
      </trkpt>
      <trkpt lat="44.57682" lon="3.06744">
        <ele>1393.429</ele>
        <time>2011-06-25T09:47:06Z</time>
      </trkpt>
      <trkpt lat="44.57682" lon="3.06758">
        <ele>1394.45</ele>
        <time>2011-06-25T09:47:15Z</time>
      </trkpt>
      <trkpt lat="44.57682" lon="3.06771">
        <ele>1394.719</ele>
        <time>2011-06-25T09:47:24Z</time>
      </trkpt>
      <trkpt lat="44.57681" lon="3.06786">
        <ele>1394.351</ele>
        <time>2011-06-25T09:47:34Z</time>
      </trkpt>
      <trkpt lat="44.57684" lon="3.068">
        <ele>1395.916</ele>
        <time>2011-06-25T09:47:44Z</time>
      </trkpt>
      <trkpt lat="44.57681" lon="3.06815">
        <ele>1396.29</ele>
        <time>2011-06-25T09:47:54Z</time>
      </trkpt>
      <trkpt lat="44.57679" lon="3.06827">
        <ele>1396.978</ele>
        <time>2011-06-25T09:48:05Z</time>
      </trkpt>
      <trkpt lat="44.57675" lon="3.06846">
        <ele>1396.769</ele>
        <time>2011-06-25T09:48:15Z</time>
      </trkpt>
      <trkpt lat="44.57678" lon="3.06859">
        <ele>1395.173</ele>
        <time>2011-06-25T09:48:24Z</time>
      </trkpt>
      <trkpt lat="44.57679" lon="3.06874">
        <ele>1394.9</ele>
        <time>2011-06-25T09:48:34Z</time>
      </trkpt>
      <trkpt lat="44.57681" lon="3.06888">
        <ele>1393.781</ele>
        <time>2011-06-25T09:48:43Z</time>
      </trkpt>
      <trkpt lat="44.57682" lon="3.06898">
        <ele>1391.554</ele>
        <time>2011-06-25T09:48:52Z</time>
      </trkpt>
      <trkpt lat="44.57686" lon="3.06912">
        <ele>1390.396</ele>
        <time>2011-06-25T09:49:07Z</time>
      </trkpt>
      <trkpt lat="44.57685" lon="3.06925">
        <ele>1392.127</ele>
        <time>2011-06-25T09:49:20Z</time>
      </trkpt>
      <trkpt lat="44.57684" lon="3.06942">
        <ele>1391.382</ele>
        <time>2011-06-25T09:49:31Z</time>
      </trkpt>
      <trkpt lat="44.57686" lon="3.06956">
        <ele>1390.922</ele>
        <time>2011-06-25T09:49:39Z</time>
      </trkpt>
      <trkpt lat="44.57687" lon="3.0697">
        <ele>1391.541</ele>
        <time>2011-06-25T09:49:48Z</time>
      </trkpt>
      <trkpt lat="44.57685" lon="3.06983">
        <ele>1391.419</ele>
        <time>2011-06-25T09:49:57Z</time>
      </trkpt>
      <trkpt lat="44.57685" lon="3.06995">
        <ele>1391.312</ele>
        <time>2011-06-25T09:50:06Z</time>
      </trkpt>
      <trkpt lat="44.57685" lon="3.07011">
        <ele>1391.689</ele>
        <time>2011-06-25T09:50:15Z</time>
      </trkpt>
      <trkpt lat="44.57685" lon="3.07024">
        <ele>1391.786</ele>
        <time>2011-06-25T09:50:23Z</time>
      </trkpt>
      <trkpt lat="44.5768" lon="3.07036">
        <ele>1391.559</ele>
        <time>2011-06-25T09:50:32Z</time>
      </trkpt>
      <trkpt lat="44.5768" lon="3.07051">
        <ele>1391.644</ele>
        <time>2011-06-25T09:50:41Z</time>
      </trkpt>
      <trkpt lat="44.57677" lon="3.07067">
        <ele>1392.802</ele>
        <time>2011-06-25T09:50:51Z</time>
      </trkpt>
      <trkpt lat="44.57677" lon="3.07081">
        <ele>1392.728</ele>
        <time>2011-06-25T09:51:00Z</time>
      </trkpt>
      <trkpt lat="44.57678" lon="3.07096">
        <ele>1392.925</ele>
        <time>2011-06-25T09:51:08Z</time>
      </trkpt>
      <trkpt lat="44.57681" lon="3.0711">
        <ele>1393.236</ele>
        <time>2011-06-25T09:51:16Z</time>
      </trkpt>
      <trkpt lat="44.57681" lon="3.0712">
        <ele>1394.161</ele>
        <time>2011-06-25T09:51:25Z</time>
      </trkpt>
      <trkpt lat="44.57681" lon="3.07137">
        <ele>1394.661</ele>
        <time>2011-06-25T09:51:34Z</time>
      </trkpt>
      <trkpt lat="44.5768" lon="3.07151">
        <ele>1395.5</ele>
        <time>2011-06-25T09:51:43Z</time>
      </trkpt>
      <trkpt lat="44.57678" lon="3.07163">
        <ele>1395.499</ele>
        <time>2011-06-25T09:51:52Z</time>
      </trkpt>
      <trkpt lat="44.57677" lon="3.07178">
        <ele>1397.375</ele>
        <time>2011-06-25T09:52:01Z</time>
      </trkpt>
      <trkpt lat="44.57679" lon="3.07191">
        <ele>1396.505</ele>
        <time>2011-06-25T09:52:09Z</time>
      </trkpt>
      <trkpt lat="44.57679" lon="3.07204">
        <ele>1395.586</ele>
        <time>2011-06-25T09:52:17Z</time>
      </trkpt>
      <trkpt lat="44.5768" lon="3.07216">
        <ele>1396.641</ele>
        <time>2011-06-25T09:52:25Z</time>
      </trkpt>
      <trkpt lat="44.57681" lon="3.07228">
        <ele>1396.761</ele>
        <time>2011-06-25T09:52:34Z</time>
      </trkpt>
      <trkpt lat="44.5768" lon="3.07243">
        <ele>1397.039</ele>
        <time>2011-06-25T09:52:43Z</time>
      </trkpt>
      <trkpt lat="44.57683" lon="3.07256">
        <ele>1397.443</ele>
        <time>2011-06-25T09:52:54Z</time>
      </trkpt>
      <trkpt lat="44.57683" lon="3.07268">
        <ele>1397.648</ele>
        <time>2011-06-25T09:53:03Z</time>
      </trkpt>
      <trkpt lat="44.57685" lon="3.07282">
        <ele>1399.891</ele>
        <time>2011-06-25T09:53:11Z</time>
      </trkpt>
      <trkpt lat="44.57683" lon="3.07297">
        <ele>1400.13</ele>
        <time>2011-06-25T09:53:21Z</time>
      </trkpt>
      <trkpt lat="44.57683" lon="3.07311">
        <ele>1401.592</ele>
        <time>2011-06-25T09:53:35Z</time>
      </trkpt>
      <trkpt lat="44.57684" lon="3.07324">
        <ele>1401.221</ele>
        <time>2011-06-25T09:53:44Z</time>
      </trkpt>
      <trkpt lat="44.57681" lon="3.07338">
        <ele>1401.396</ele>
        <time>2011-06-25T09:53:53Z</time>
      </trkpt>
      <trkpt lat="44.57676" lon="3.07353">
        <ele>1403.676</ele>
        <time>2011-06-25T09:54:03Z</time>
      </trkpt>
      <trkpt lat="44.57668" lon="3.07367">
        <ele>1403.702</ele>
        <time>2011-06-25T09:54:17Z</time>
      </trkpt>
      <trkpt lat="44.57665" lon="3.07381">
        <ele>1403.695</ele>
        <time>2011-06-25T09:54:45Z</time>
      </trkpt>
      <trkpt lat="44.57666" lon="3.07395">
        <ele>1404.217</ele>
        <time>2011-06-25T09:54:55Z</time>
      </trkpt>
      <trkpt lat="44.57668" lon="3.07408">
        <ele>1403.98</ele>
        <time>2011-06-25T09:55:04Z</time>
      </trkpt>
      <trkpt lat="44.57668" lon="3.07424">
        <ele>1404.388</ele>
        <time>2011-06-25T09:55:13Z</time>
      </trkpt>
      <trkpt lat="44.5767" lon="3.07439">
        <ele>1404.713</ele>
        <time>2011-06-25T09:55:22Z</time>
      </trkpt>
      <trkpt lat="44.57669" lon="3.0745">
        <ele>1404.915</ele>
        <time>2011-06-25T09:55:31Z</time>
      </trkpt>
      <trkpt lat="44.57674" lon="3.07462">
        <ele>1404.588</ele>
        <time>2011-06-25T09:55:40Z</time>
      </trkpt>
      <trkpt lat="44.57681" lon="3.07472">
        <ele>1405.144</ele>
        <time>2011-06-25T09:55:48Z</time>
      </trkpt>
      <trkpt lat="44.57685" lon="3.07485">
        <ele>1404.513</ele>
        <time>2011-06-25T09:55:56Z</time>
      </trkpt>
      <trkpt lat="44.57691" lon="3.07496">
        <ele>1405.049</ele>
        <time>2011-06-25T09:56:04Z</time>
      </trkpt>
      <trkpt lat="44.57692" lon="3.0751">
        <ele>1406.839</ele>
        <time>2011-06-25T09:56:12Z</time>
      </trkpt>
      <trkpt lat="44.5769" lon="3.07525">
        <ele>1406.881</ele>
        <time>2011-06-25T09:56:21Z</time>
      </trkpt>
      <trkpt lat="44.57689" lon="3.0754">
        <ele>1406.8</ele>
        <time>2011-06-25T09:56:29Z</time>
      </trkpt>
      <trkpt lat="44.57688" lon="3.07555">
        <ele>1408.356</ele>
        <time>2011-06-25T09:56:38Z</time>
      </trkpt>
      <trkpt lat="44.57688" lon="3.07568">
        <ele>1407.886</ele>
        <time>2011-06-25T09:56:46Z</time>
      </trkpt>
      <trkpt lat="44.57688" lon="3.07579">
        <ele>1408.927</ele>
        <time>2011-06-25T09:56:54Z</time>
      </trkpt>
      <trkpt lat="44.57684" lon="3.07593">
        <ele>1409.289</ele>
        <time>2011-06-25T09:57:33Z</time>
      </trkpt>
      <trkpt lat="44.57683" lon="3.07607">
        <ele>1410.943</ele>
        <time>2011-06-25T09:57:43Z</time>
      </trkpt>
      <trkpt lat="44.57683" lon="3.07622">
        <ele>1409.225</ele>
        <time>2011-06-25T09:57:52Z</time>
      </trkpt>
      <trkpt lat="44.57682" lon="3.07636">
        <ele>1410.142</ele>
        <time>2011-06-25T09:58:01Z</time>
      </trkpt>
      <trkpt lat="44.57682" lon="3.07653">
        <ele>1409.378</ele>
        <time>2011-06-25T09:58:09Z</time>
      </trkpt>
      <trkpt lat="44.57682" lon="3.0767">
        <ele>1409.296</ele>
        <time>2011-06-25T09:58:18Z</time>
      </trkpt>
      <trkpt lat="44.57684" lon="3.07684">
        <ele>1408.665</ele>
        <time>2011-06-25T09:58:26Z</time>
      </trkpt>
      <trkpt lat="44.57685" lon="3.07696">
        <ele>1409.398</ele>
        <time>2011-06-25T09:58:34Z</time>
      </trkpt>
      <trkpt lat="44.57685" lon="3.07711">
        <ele>1409.245</ele>
        <time>2011-06-25T09:58:44Z</time>
      </trkpt>
      <trkpt lat="44.57685" lon="3.07723">
        <ele>1409.375</ele>
        <time>2011-06-25T09:58:52Z</time>
      </trkpt>
      <trkpt lat="44.57688" lon="3.07734">
        <ele>1408.282</ele>
        <time>2011-06-25T09:59:01Z</time>
      </trkpt>
      <trkpt lat="44.5769" lon="3.07751">
        <ele>1408.921</ele>
        <time>2011-06-25T09:59:09Z</time>
      </trkpt>
      <trkpt lat="44.57693" lon="3.07762">
        <ele>1409.275</ele>
        <time>2011-06-25T09:59:17Z</time>
      </trkpt>
      <trkpt lat="44.57699" lon="3.07773">
        <ele>1409.493</ele>
        <time>2011-06-25T09:59:25Z</time>
      </trkpt>
      <trkpt lat="44.577" lon="3.07789">
        <ele>1409.127</ele>
        <time>2011-06-25T09:59:33Z</time>
      </trkpt>
      <trkpt lat="44.57702" lon="3.07802">
        <ele>1410.304</ele>
        <time>2011-06-25T09:59:41Z</time>
      </trkpt>
      <trkpt lat="44.57703" lon="3.07815">
        <ele>1410.536</ele>
        <time>2011-06-25T09:59:48Z</time>
      </trkpt>
      <trkpt lat="44.57702" lon="3.07826">
        <ele>1410.893</ele>
        <time>2011-06-25T09:59:55Z</time>
      </trkpt>
      <trkpt lat="44.57702" lon="3.07838">
        <ele>1410.915</ele>
        <time>2011-06-25T10:00:04Z</time>
      </trkpt>
      <trkpt lat="44.57702" lon="3.07849">
        <ele>1410.325</ele>
        <time>2011-06-25T10:00:13Z</time>
      </trkpt>
      <trkpt lat="44.57701" lon="3.07865">
        <ele>1410.691</ele>
        <time>2011-06-25T10:00:21Z</time>
      </trkpt>
      <trkpt lat="44.57703" lon="3.07877">
        <ele>1410.867</ele>
        <time>2011-06-25T10:00:29Z</time>
      </trkpt>
      <trkpt lat="44.57705" lon="3.0789">
        <ele>1411.505</ele>
        <time>2011-06-25T10:00:37Z</time>
      </trkpt>
      <trkpt lat="44.57704" lon="3.07905">
        <ele>1412.103</ele>
        <time>2011-06-25T10:00:45Z</time>
      </trkpt>
      <trkpt lat="44.57704" lon="3.07918">
        <ele>1410.432</ele>
        <time>2011-06-25T10:00:53Z</time>
      </trkpt>
      <trkpt lat="44.57706" lon="3.07931">
        <ele>1411.783</ele>
        <time>2011-06-25T10:01:01Z</time>
      </trkpt>
      <trkpt lat="44.57709" lon="3.07948">
        <ele>1411.811</ele>
        <time>2011-06-25T10:01:09Z</time>
      </trkpt>
      <trkpt lat="44.57711" lon="3.07961">
        <ele>1412.644</ele>
        <time>2011-06-25T10:01:17Z</time>
      </trkpt>
      <trkpt lat="44.5771" lon="3.07979">
        <ele>1411.981</ele>
        <time>2011-06-25T10:01:25Z</time>
      </trkpt>
      <trkpt lat="44.57711" lon="3.0799">
        <ele>1412.568</ele>
        <time>2011-06-25T10:01:33Z</time>
      </trkpt>
      <trkpt lat="44.57713" lon="3.08003">
        <ele>1412.634</ele>
        <time>2011-06-25T10:01:42Z</time>
      </trkpt>
      <trkpt lat="44.57714" lon="3.08018">
        <ele>1412.407</ele>
        <time>2011-06-25T10:01:50Z</time>
      </trkpt>
      <trkpt lat="44.57716" lon="3.08031">
        <ele>1413.27</ele>
        <time>2011-06-25T10:01:57Z</time>
      </trkpt>
      <trkpt lat="44.57717" lon="3.08043">
        <ele>1412.368</ele>
        <time>2011-06-25T10:02:05Z</time>
      </trkpt>
      <trkpt lat="44.5772" lon="3.08052">
        <ele>1411.284</ele>
        <time>2011-06-25T10:02:13Z</time>
      </trkpt>
      <trkpt lat="44.57722" lon="3.08065">
        <ele>1410.654</ele>
        <time>2011-06-25T10:02:21Z</time>
      </trkpt>
      <trkpt lat="44.57723" lon="3.08078">
        <ele>1409.874</ele>
        <time>2011-06-25T10:02:28Z</time>
      </trkpt>
      <trkpt lat="44.5772" lon="3.08091">
        <ele>1411.637</ele>
        <time>2011-06-25T10:02:36Z</time>
      </trkpt>
      <trkpt lat="44.57717" lon="3.08106">
        <ele>1410.495</ele>
        <time>2011-06-25T10:02:46Z</time>
      </trkpt>
      <trkpt lat="44.57714" lon="3.08117">
        <ele>1410.531</ele>
        <time>2011-06-25T10:02:54Z</time>
      </trkpt>
      <trkpt lat="44.5771" lon="3.08131">
        <ele>1410.365</ele>
        <time>2011-06-25T10:03:02Z</time>
      </trkpt>
      <trkpt lat="44.57711" lon="3.08146">
        <ele>1409.668</ele>
        <time>2011-06-25T10:03:11Z</time>
      </trkpt>
      <trkpt lat="44.57713" lon="3.08159">
        <ele>1407.765</ele>
        <time>2011-06-25T10:03:20Z</time>
      </trkpt>
      <trkpt lat="44.57717" lon="3.08171">
        <ele>1408.279</ele>
        <time>2011-06-25T10:03:29Z</time>
      </trkpt>
      <trkpt lat="44.57718" lon="3.08186">
        <ele>1407.234</ele>
        <time>2011-06-25T10:03:38Z</time>
      </trkpt>
      <trkpt lat="44.57721" lon="3.082">
        <ele>1407.585</ele>
        <time>2011-06-25T10:03:47Z</time>
      </trkpt>
      <trkpt lat="44.57715" lon="3.08204">
        <ele>1406.025</ele>
        <time>2011-06-25T10:05:55Z</time>
      </trkpt>
      <trkpt lat="44.57716" lon="3.08216">
        <ele>1405.864</ele>
        <time>2011-06-25T10:07:06Z</time>
      </trkpt>
      <trkpt lat="44.57726" lon="3.08226">
        <ele>1404.74</ele>
        <time>2011-06-25T10:07:35Z</time>
      </trkpt>
      <trkpt lat="44.57741" lon="3.08232">
        <ele>1402.542</ele>
        <time>2011-06-25T10:07:46Z</time>
      </trkpt>
      <trkpt lat="44.57749" lon="3.08241">
        <ele>1402.251</ele>
        <time>2011-06-25T10:07:54Z</time>
      </trkpt>
      <trkpt lat="44.57757" lon="3.08248">
        <ele>1400.535</ele>
        <time>2011-06-25T10:08:01Z</time>
      </trkpt>
      <trkpt lat="44.57764" lon="3.0826">
        <ele>1399.357</ele>
        <time>2011-06-25T10:08:17Z</time>
      </trkpt>
      <trkpt lat="44.57768" lon="3.08273">
        <ele>1399.473</ele>
        <time>2011-06-25T10:08:25Z</time>
      </trkpt>
      <trkpt lat="44.57771" lon="3.08286">
        <ele>1399.165</ele>
        <time>2011-06-25T10:08:33Z</time>
      </trkpt>
      <trkpt lat="44.57772" lon="3.08299">
        <ele>1399.557</ele>
        <time>2011-06-25T10:08:42Z</time>
      </trkpt>
      <trkpt lat="44.5778" lon="3.08307">
        <ele>1398.699</ele>
        <time>2011-06-25T10:08:53Z</time>
      </trkpt>
      <trkpt lat="44.57781" lon="3.0832">
        <ele>1398.931</ele>
        <time>2011-06-25T10:09:07Z</time>
      </trkpt>
      <trkpt lat="44.57785" lon="3.08331">
        <ele>1397.087</ele>
        <time>2011-06-25T10:09:20Z</time>
      </trkpt>
      <trkpt lat="44.5779" lon="3.08344">
        <ele>1397.131</ele>
        <time>2011-06-25T10:09:28Z</time>
      </trkpt>
      <trkpt lat="44.57794" lon="3.08355">
        <ele>1396.039</ele>
        <time>2011-06-25T10:09:36Z</time>
      </trkpt>
      <trkpt lat="44.57796" lon="3.08367">
        <ele>1396.799</ele>
        <time>2011-06-25T10:09:44Z</time>
      </trkpt>
      <trkpt lat="44.57801" lon="3.08379">
        <ele>1395.491</ele>
        <time>2011-06-25T10:09:52Z</time>
      </trkpt>
      <trkpt lat="44.57805" lon="3.08389">
        <ele>1396.818</ele>
        <time>2011-06-25T10:10:00Z</time>
      </trkpt>
      <trkpt lat="44.57809" lon="3.08403">
        <ele>1396.009</ele>
        <time>2011-06-25T10:10:08Z</time>
      </trkpt>
      <trkpt lat="44.57811" lon="3.08415">
        <ele>1395.495</ele>
        <time>2011-06-25T10:10:16Z</time>
      </trkpt>
      <trkpt lat="44.57814" lon="3.08428">
        <ele>1394.826</ele>
        <time>2011-06-25T10:10:24Z</time>
      </trkpt>
      <trkpt lat="44.57818" lon="3.0844">
        <ele>1394.757</ele>
        <time>2011-06-25T10:10:32Z</time>
      </trkpt>
      <trkpt lat="44.5782" lon="3.08454">
        <ele>1394.893</ele>
        <time>2011-06-25T10:10:40Z</time>
      </trkpt>
      <trkpt lat="44.57825" lon="3.08466">
        <ele>1393.466</ele>
        <time>2011-06-25T10:10:48Z</time>
      </trkpt>
      <trkpt lat="44.57828" lon="3.08479">
        <ele>1394.38</ele>
        <time>2011-06-25T10:10:56Z</time>
      </trkpt>
      <trkpt lat="44.5783" lon="3.08492">
        <ele>1394.827</ele>
        <time>2011-06-25T10:11:05Z</time>
      </trkpt>
      <trkpt lat="44.57835" lon="3.08504">
        <ele>1393.752</ele>
        <time>2011-06-25T10:11:12Z</time>
      </trkpt>
      <trkpt lat="44.57839" lon="3.08516">
        <ele>1394.649</ele>
        <time>2011-06-25T10:11:20Z</time>
      </trkpt>
      <trkpt lat="44.57843" lon="3.08527">
        <ele>1393.611</ele>
        <time>2011-06-25T10:11:27Z</time>
      </trkpt>
      <trkpt lat="44.57846" lon="3.08538">
        <ele>1392.61</ele>
        <time>2011-06-25T10:11:35Z</time>
      </trkpt>
      <trkpt lat="44.57849" lon="3.08549">
        <ele>1393.769</ele>
        <time>2011-06-25T10:11:43Z</time>
      </trkpt>
      <trkpt lat="44.57853" lon="3.08561">
        <ele>1393.561</ele>
        <time>2011-06-25T10:11:51Z</time>
      </trkpt>
      <trkpt lat="44.57857" lon="3.08572">
        <ele>1393.025</ele>
        <time>2011-06-25T10:11:59Z</time>
      </trkpt>
      <trkpt lat="44.57859" lon="3.08584">
        <ele>1393.616</ele>
        <time>2011-06-25T10:12:07Z</time>
      </trkpt>
      <trkpt lat="44.57862" lon="3.08597">
        <ele>1394.495</ele>
        <time>2011-06-25T10:12:15Z</time>
      </trkpt>
      <trkpt lat="44.57862" lon="3.08615">
        <ele>1394.16</ele>
        <time>2011-06-25T10:12:24Z</time>
      </trkpt>
      <trkpt lat="44.57868" lon="3.08627">
        <ele>1393.621</ele>
        <time>2011-06-25T10:12:32Z</time>
      </trkpt>
      <trkpt lat="44.57871" lon="3.08641">
        <ele>1393.078</ele>
        <time>2011-06-25T10:12:40Z</time>
      </trkpt>
      <trkpt lat="44.57874" lon="3.08652">
        <ele>1391.939</ele>
        <time>2011-06-25T10:12:48Z</time>
      </trkpt>
      <trkpt lat="44.57877" lon="3.08663">
        <ele>1391.13</ele>
        <time>2011-06-25T10:12:56Z</time>
      </trkpt>
      <trkpt lat="44.57878" lon="3.08676">
        <ele>1390.185</ele>
        <time>2011-06-25T10:13:06Z</time>
      </trkpt>
      <trkpt lat="44.57876" lon="3.08679">
        <ele>1392.456</ele>
        <time>2011-06-25T10:14:10Z</time>
      </trkpt>
      <trkpt lat="44.57873" lon="3.0867">
        <ele>1392.565</ele>
        <time>2011-06-25T10:14:22Z</time>
      </trkpt>
      <trkpt lat="44.57863" lon="3.08666">
        <ele>1393.433</ele>
        <time>2011-06-25T10:14:58Z</time>
      </trkpt>
      <trkpt lat="44.57853" lon="3.0866">
        <ele>1395.152</ele>
        <time>2011-06-25T10:15:11Z</time>
      </trkpt>
      <trkpt lat="44.57849" lon="3.08652">
        <ele>1393.977</ele>
        <time>2011-06-25T10:17:09Z</time>
      </trkpt>
      <trkpt lat="44.57841" lon="3.08642">
        <ele>1395.98</ele>
        <time>2011-06-25T10:17:18Z</time>
      </trkpt>
      <trkpt lat="44.5783" lon="3.08634">
        <ele>1396.869</ele>
        <time>2011-06-25T10:17:27Z</time>
      </trkpt>
      <trkpt lat="44.57819" lon="3.08629">
        <ele>1397.604</ele>
        <time>2011-06-25T10:17:35Z</time>
      </trkpt>
      <trkpt lat="44.57809" lon="3.08624">
        <ele>1397.047</ele>
        <time>2011-06-25T10:17:44Z</time>
      </trkpt>
      <trkpt lat="44.578" lon="3.08616">
        <ele>1397.728</ele>
        <time>2011-06-25T10:17:53Z</time>
      </trkpt>
      <trkpt lat="44.57793" lon="3.08607">
        <ele>1398.119</ele>
        <time>2011-06-25T10:18:01Z</time>
      </trkpt>
      <trkpt lat="44.57786" lon="3.08602">
        <ele>1398.337</ele>
        <time>2011-06-25T10:18:09Z</time>
      </trkpt>
      <trkpt lat="44.57778" lon="3.08598">
        <ele>1398.647</ele>
        <time>2011-06-25T10:18:17Z</time>
      </trkpt>
      <trkpt lat="44.57769" lon="3.08596">
        <ele>1399.501</ele>
        <time>2011-06-25T10:18:24Z</time>
      </trkpt>
      <trkpt lat="44.57759" lon="3.08594">
        <ele>1399.839</ele>
        <time>2011-06-25T10:18:30Z</time>
      </trkpt>
      <trkpt lat="44.5775" lon="3.08593">
        <ele>1400.891</ele>
        <time>2011-06-25T10:18:39Z</time>
      </trkpt>
      <trkpt lat="44.57739" lon="3.08589">
        <ele>1402.594</ele>
        <time>2011-06-25T10:18:49Z</time>
      </trkpt>
      <trkpt lat="44.57728" lon="3.08585">
        <ele>1402.869</ele>
        <time>2011-06-25T10:18:58Z</time>
      </trkpt>
      <trkpt lat="44.57719" lon="3.08582">
        <ele>1403.713</ele>
        <time>2011-06-25T10:19:07Z</time>
      </trkpt>
      <trkpt lat="44.57708" lon="3.08581">
        <ele>1405.611</ele>
        <time>2011-06-25T10:19:17Z</time>
      </trkpt>
      <trkpt lat="44.57698" lon="3.08579">
        <ele>1407.335</ele>
        <time>2011-06-25T10:19:26Z</time>
      </trkpt>
      <trkpt lat="44.57688" lon="3.08572">
        <ele>1408.556</ele>
        <time>2011-06-25T10:19:36Z</time>
      </trkpt>
      <trkpt lat="44.5768" lon="3.08567">
        <ele>1409.897</ele>
        <time>2011-06-25T10:19:45Z</time>
      </trkpt>
      <trkpt lat="44.5767" lon="3.0856">
        <ele>1410.985</ele>
        <time>2011-06-25T10:19:54Z</time>
      </trkpt>
      <trkpt lat="44.5766" lon="3.08555">
        <ele>1412.412</ele>
        <time>2011-06-25T10:20:03Z</time>
      </trkpt>
      <trkpt lat="44.5765" lon="3.08553">
        <ele>1412.992</ele>
        <time>2011-06-25T10:20:12Z</time>
      </trkpt>
      <trkpt lat="44.57641" lon="3.08548">
        <ele>1413.052</ele>
        <time>2011-06-25T10:20:21Z</time>
      </trkpt>
      <trkpt lat="44.57632" lon="3.08546">
        <ele>1412.203</ele>
        <time>2011-06-25T10:20:29Z</time>
      </trkpt>
      <trkpt lat="44.57626" lon="3.08537">
        <ele>1412.252</ele>
        <time>2011-06-25T10:20:38Z</time>
      </trkpt>
      <trkpt lat="44.57618" lon="3.08529">
        <ele>1411.279</ele>
        <time>2011-06-25T10:20:45Z</time>
      </trkpt>
      <trkpt lat="44.57612" lon="3.0852">
        <ele>1411.079</ele>
        <time>2011-06-25T10:20:53Z</time>
      </trkpt>
      <trkpt lat="44.57607" lon="3.08512">
        <ele>1410.163</ele>
        <time>2011-06-25T10:21:02Z</time>
      </trkpt>
      <trkpt lat="44.57599" lon="3.08502">
        <ele>1410.18</ele>
        <time>2011-06-25T10:21:11Z</time>
      </trkpt>
      <trkpt lat="44.57591" lon="3.08492">
        <ele>1410.386</ele>
        <time>2011-06-25T10:21:29Z</time>
      </trkpt>
      <trkpt lat="44.57584" lon="3.08482">
        <ele>1411.116</ele>
        <time>2011-06-25T10:21:38Z</time>
      </trkpt>
      <trkpt lat="44.57575" lon="3.08474">
        <ele>1411.299</ele>
        <time>2011-06-25T10:21:51Z</time>
      </trkpt>
      <trkpt lat="44.57568" lon="3.08464">
        <ele>1411.754</ele>
        <time>2011-06-25T10:22:01Z</time>
      </trkpt>
      <trkpt lat="44.5756" lon="3.08456">
        <ele>1411.577</ele>
        <time>2011-06-25T10:22:11Z</time>
      </trkpt>
      <trkpt lat="44.57551" lon="3.08445">
        <ele>1412.535</ele>
        <time>2011-06-25T10:22:57Z</time>
      </trkpt>
      <trkpt lat="44.57542" lon="3.08432">
        <ele>1413.554</ele>
        <time>2011-06-25T10:23:08Z</time>
      </trkpt>
      <trkpt lat="44.57538" lon="3.0842">
        <ele>1413.513</ele>
        <time>2011-06-25T10:23:24Z</time>
      </trkpt>
      <trkpt lat="44.57531" lon="3.08409">
        <ele>1414.038</ele>
        <time>2011-06-25T10:23:34Z</time>
      </trkpt>
      <trkpt lat="44.57534" lon="3.08394">
        <ele>1414.071</ele>
        <time>2011-06-25T10:23:51Z</time>
      </trkpt>
      <trkpt lat="44.57527" lon="3.08384">
        <ele>1413.937</ele>
        <time>2011-06-25T10:23:58Z</time>
      </trkpt>
      <trkpt lat="44.5752" lon="3.08375">
        <ele>1414.448</ele>
        <time>2011-06-25T10:24:06Z</time>
      </trkpt>
      <trkpt lat="44.57513" lon="3.0837">
        <ele>1415.039</ele>
        <time>2011-06-25T10:24:14Z</time>
      </trkpt>
      <trkpt lat="44.57504" lon="3.08361">
        <ele>1414.423</ele>
        <time>2011-06-25T10:24:23Z</time>
      </trkpt>
      <trkpt lat="44.57496" lon="3.08352">
        <ele>1414.46</ele>
        <time>2011-06-25T10:24:32Z</time>
      </trkpt>
      <trkpt lat="44.57491" lon="3.0834">
        <ele>1414.497</ele>
        <time>2011-06-25T10:24:40Z</time>
      </trkpt>
      <trkpt lat="44.57484" lon="3.08332">
        <ele>1415.038</ele>
        <time>2011-06-25T10:24:49Z</time>
      </trkpt>
      <trkpt lat="44.57475" lon="3.08326">
        <ele>1414.869</ele>
        <time>2011-06-25T10:24:58Z</time>
      </trkpt>
      <trkpt lat="44.57467" lon="3.08319">
        <ele>1415.095</ele>
        <time>2011-06-25T10:25:07Z</time>
      </trkpt>
      <trkpt lat="44.57459" lon="3.08309">
        <ele>1414.83</ele>
        <time>2011-06-25T10:25:16Z</time>
      </trkpt>
      <trkpt lat="44.57453" lon="3.08301">
        <ele>1415.425</ele>
        <time>2011-06-25T10:25:26Z</time>
      </trkpt>
      <trkpt lat="44.57445" lon="3.0829">
        <ele>1414.754</ele>
        <time>2011-06-25T10:25:36Z</time>
      </trkpt>
      <trkpt lat="44.5744" lon="3.08283">
        <ele>1415.535</ele>
        <time>2011-06-25T10:25:45Z</time>
      </trkpt>
      <trkpt lat="44.57434" lon="3.08273">
        <ele>1415.802</ele>
        <time>2011-06-25T10:25:54Z</time>
      </trkpt>
      <trkpt lat="44.57425" lon="3.08263">
        <ele>1415.709</ele>
        <time>2011-06-25T10:26:04Z</time>
      </trkpt>
      <trkpt lat="44.57415" lon="3.08261">
        <ele>1415.151</ele>
        <time>2011-06-25T10:26:19Z</time>
      </trkpt>
      <trkpt lat="44.57405" lon="3.08263">
        <ele>1413.919</ele>
        <time>2011-06-25T10:26:29Z</time>
      </trkpt>
      <trkpt lat="44.57394" lon="3.08262">
        <ele>1413.393</ele>
        <time>2011-06-25T10:26:38Z</time>
      </trkpt>
      <trkpt lat="44.57383" lon="3.08262">
        <ele>1412.419</ele>
        <time>2011-06-25T10:26:46Z</time>
      </trkpt>
      <trkpt lat="44.57373" lon="3.08263">
        <ele>1411.491</ele>
        <time>2011-06-25T10:26:56Z</time>
      </trkpt>
      <trkpt lat="44.57364" lon="3.08268">
        <ele>1410.029</ele>
        <time>2011-06-25T10:27:06Z</time>
      </trkpt>
      <trkpt lat="44.57355" lon="3.08272">
        <ele>1407.926</ele>
        <time>2011-06-25T10:27:16Z</time>
      </trkpt>
      <trkpt lat="44.57345" lon="3.08273">
        <ele>1407.076</ele>
        <time>2011-06-25T10:27:26Z</time>
      </trkpt>
      <trkpt lat="44.57338" lon="3.08281">
        <ele>1406.274</ele>
        <time>2011-06-25T10:27:35Z</time>
      </trkpt>
      <trkpt lat="44.57328" lon="3.08286">
        <ele>1404.974</ele>
        <time>2011-06-25T10:27:43Z</time>
      </trkpt>
      <trkpt lat="44.57318" lon="3.08291">
        <ele>1404.272</ele>
        <time>2011-06-25T10:27:51Z</time>
      </trkpt>
      <trkpt lat="44.57308" lon="3.08295">
        <ele>1403.092</ele>
        <time>2011-06-25T10:28:00Z</time>
      </trkpt>
      <trkpt lat="44.57301" lon="3.08302">
        <ele>1401.794</ele>
        <time>2011-06-25T10:28:09Z</time>
      </trkpt>
      <trkpt lat="44.57293" lon="3.08311">
        <ele>1399.951</ele>
        <time>2011-06-25T10:28:19Z</time>
      </trkpt>
      <trkpt lat="44.57287" lon="3.0832">
        <ele>1397.841</ele>
        <time>2011-06-25T10:28:30Z</time>
      </trkpt>
      <trkpt lat="44.5728" lon="3.08327">
        <ele>1396.982</ele>
        <time>2011-06-25T10:28:41Z</time>
      </trkpt>
      <trkpt lat="44.57272" lon="3.08321">
        <ele>1396.766</ele>
        <time>2011-06-25T10:29:02Z</time>
      </trkpt>
      <trkpt lat="44.57261" lon="3.08327">
        <ele>1398.165</ele>
        <time>2011-06-25T10:29:52Z</time>
      </trkpt>
      <trkpt lat="44.57251" lon="3.08331">
        <ele>1399.182</ele>
        <time>2011-06-25T10:30:03Z</time>
      </trkpt>
      <trkpt lat="44.57241" lon="3.08331">
        <ele>1400.221</ele>
        <time>2011-06-25T10:30:14Z</time>
      </trkpt>
      <trkpt lat="44.57232" lon="3.08331">
        <ele>1400.558</ele>
        <time>2011-06-25T10:30:23Z</time>
      </trkpt>
      <trkpt lat="44.57223" lon="3.08331">
        <ele>1402.36</ele>
        <time>2011-06-25T10:30:33Z</time>
      </trkpt>
      <trkpt lat="44.57214" lon="3.0833">
        <ele>1402.771</ele>
        <time>2011-06-25T10:30:43Z</time>
      </trkpt>
      <trkpt lat="44.57204" lon="3.08333">
        <ele>1404.427</ele>
        <time>2011-06-25T10:30:53Z</time>
      </trkpt>
      <trkpt lat="44.57195" lon="3.08334">
        <ele>1405.992</ele>
        <time>2011-06-25T10:31:03Z</time>
      </trkpt>
      <trkpt lat="44.57186" lon="3.08339">
        <ele>1406.64</ele>
        <time>2011-06-25T10:31:12Z</time>
      </trkpt>
      <trkpt lat="44.57178" lon="3.08345">
        <ele>1407.235</ele>
        <time>2011-06-25T10:31:20Z</time>
      </trkpt>
      <trkpt lat="44.57174" lon="3.08354">
        <ele>1408.293</ele>
        <time>2011-06-25T10:31:29Z</time>
      </trkpt>
      <trkpt lat="44.57166" lon="3.08363">
        <ele>1409.115</ele>
        <time>2011-06-25T10:31:39Z</time>
      </trkpt>
      <trkpt lat="44.57158" lon="3.0837">
        <ele>1410.675</ele>
        <time>2011-06-25T10:31:49Z</time>
      </trkpt>
      <trkpt lat="44.57154" lon="3.0838">
        <ele>1411.221</ele>
        <time>2011-06-25T10:31:58Z</time>
      </trkpt>
      <trkpt lat="44.57147" lon="3.08388">
        <ele>1411.553</ele>
        <time>2011-06-25T10:32:06Z</time>
      </trkpt>
      <trkpt lat="44.5714" lon="3.08397">
        <ele>1412.835</ele>
        <time>2011-06-25T10:32:14Z</time>
      </trkpt>
      <trkpt lat="44.57134" lon="3.08405">
        <ele>1413.326</ele>
        <time>2011-06-25T10:32:23Z</time>
      </trkpt>
      <trkpt lat="44.57127" lon="3.08412">
        <ele>1414.749</ele>
        <time>2011-06-25T10:32:33Z</time>
      </trkpt>
      <trkpt lat="44.57119" lon="3.08419">
        <ele>1415.682</ele>
        <time>2011-06-25T10:32:46Z</time>
      </trkpt>
      <trkpt lat="44.57123" lon="3.08414">
        <ele>1416.494</ele>
        <time>2011-06-25T10:33:04Z</time>
      </trkpt>
      <trkpt lat="44.57129" lon="3.08411">
        <ele>1414.771</ele>
        <time>2011-06-25T10:34:14Z</time>
      </trkpt>
      <trkpt lat="44.57118" lon="3.08419">
        <ele>1415.618</ele>
        <time>2011-06-25T10:34:28Z</time>
      </trkpt>
      <trkpt lat="44.5711" lon="3.08428">
        <ele>1416.704</ele>
        <time>2011-06-25T10:34:41Z</time>
      </trkpt>
      <trkpt lat="44.57102" lon="3.08434">
        <ele>1417.957</ele>
        <time>2011-06-25T10:34:52Z</time>
      </trkpt>
      <trkpt lat="44.57092" lon="3.08438">
        <ele>1418.804</ele>
        <time>2011-06-25T10:35:03Z</time>
      </trkpt>
      <trkpt lat="44.57083" lon="3.0844">
        <ele>1420.578</ele>
        <time>2011-06-25T10:35:13Z</time>
      </trkpt>
      <trkpt lat="44.57074" lon="3.08444">
        <ele>1421.073</ele>
        <time>2011-06-25T10:35:23Z</time>
      </trkpt>
      <trkpt lat="44.57065" lon="3.08447">
        <ele>1422.405</ele>
        <time>2011-06-25T10:35:35Z</time>
      </trkpt>
      <trkpt lat="44.57056" lon="3.08455">
        <ele>1423.494</ele>
        <time>2011-06-25T10:35:45Z</time>
      </trkpt>
      <trkpt lat="44.57048" lon="3.08462">
        <ele>1426.516</ele>
        <time>2011-06-25T10:35:55Z</time>
      </trkpt>
      <trkpt lat="44.57041" lon="3.0847">
        <ele>1425.543</ele>
        <time>2011-06-25T10:36:06Z</time>
      </trkpt>
      <trkpt lat="44.57034" lon="3.08475">
        <ele>1426.041</ele>
        <time>2011-06-25T10:36:22Z</time>
      </trkpt>
      <trkpt lat="44.57023" lon="3.08481">
        <ele>1426.491</ele>
        <time>2011-06-25T10:36:33Z</time>
      </trkpt>
      <trkpt lat="44.57014" lon="3.0849">
        <ele>1427.652</ele>
        <time>2011-06-25T10:36:43Z</time>
      </trkpt>
      <trkpt lat="44.57009" lon="3.08498">
        <ele>1428.393</ele>
        <time>2011-06-25T10:36:52Z</time>
      </trkpt>
      <trkpt lat="44.57003" lon="3.0851">
        <ele>1429.15</ele>
        <time>2011-06-25T10:37:02Z</time>
      </trkpt>
      <trkpt lat="44.56995" lon="3.08522">
        <ele>1429.861</ele>
        <time>2011-06-25T10:37:13Z</time>
      </trkpt>
      <trkpt lat="44.56986" lon="3.0853">
        <ele>1430.392</ele>
        <time>2011-06-25T10:37:23Z</time>
      </trkpt>
      <trkpt lat="44.5698" lon="3.08536">
        <ele>1430.766</ele>
        <time>2011-06-25T10:37:33Z</time>
      </trkpt>
      <trkpt lat="44.56969" lon="3.08539">
        <ele>1431.612</ele>
        <time>2011-06-25T10:37:46Z</time>
      </trkpt>
      <trkpt lat="44.56957" lon="3.08534">
        <ele>1432.445</ele>
        <time>2011-06-25T10:37:55Z</time>
      </trkpt>
      <trkpt lat="44.56946" lon="3.08531">
        <ele>1433.666</ele>
        <time>2011-06-25T10:38:18Z</time>
      </trkpt>
      <trkpt lat="44.56935" lon="3.08529">
        <ele>1434.344</ele>
        <time>2011-06-25T10:38:32Z</time>
      </trkpt>
      <trkpt lat="44.56925" lon="3.08529">
        <ele>1434.699</ele>
        <time>2011-06-25T10:38:41Z</time>
      </trkpt>
      <trkpt lat="44.56915" lon="3.08526">
        <ele>1435.879</ele>
        <time>2011-06-25T10:38:52Z</time>
      </trkpt>
      <trkpt lat="44.56905" lon="3.08522">
        <ele>1436.489</ele>
        <time>2011-06-25T10:39:02Z</time>
      </trkpt>
      <trkpt lat="44.56897" lon="3.08522">
        <ele>1437.245</ele>
        <time>2011-06-25T10:39:11Z</time>
      </trkpt>
      <trkpt lat="44.56887" lon="3.08523">
        <ele>1437.623</ele>
        <time>2011-06-25T10:39:21Z</time>
      </trkpt>
      <trkpt lat="44.56876" lon="3.08526">
        <ele>1437.502</ele>
        <time>2011-06-25T10:39:33Z</time>
      </trkpt>
      <trkpt lat="44.56866" lon="3.08528">
        <ele>1438.971</ele>
        <time>2011-06-25T10:39:44Z</time>
      </trkpt>
      <trkpt lat="44.56855" lon="3.0853">
        <ele>1439.158</ele>
        <time>2011-06-25T10:39:55Z</time>
      </trkpt>
      <trkpt lat="44.56844" lon="3.08527">
        <ele>1440.295</ele>
        <time>2011-06-25T10:40:06Z</time>
      </trkpt>
      <trkpt lat="44.56835" lon="3.0853">
        <ele>1441.49</ele>
        <time>2011-06-25T10:40:17Z</time>
      </trkpt>
      <trkpt lat="44.56827" lon="3.08525">
        <ele>1442.222</ele>
        <time>2011-06-25T10:40:40Z</time>
      </trkpt>
      <trkpt lat="44.56821" lon="3.08514">
        <ele>1444.15</ele>
        <time>2011-06-25T10:40:51Z</time>
      </trkpt>
      <trkpt lat="44.5682" lon="3.085">
        <ele>1445.27</ele>
        <time>2011-06-25T10:41:02Z</time>
      </trkpt>
      <trkpt lat="44.56821" lon="3.08486">
        <ele>1446.796</ele>
        <time>2011-06-25T10:41:17Z</time>
      </trkpt>
      <trkpt lat="44.56822" lon="3.08472">
        <ele>1447.452</ele>
        <time>2011-06-25T10:41:28Z</time>
      </trkpt>
      <trkpt lat="44.56817" lon="3.08461">
        <ele>1448.992</ele>
        <time>2011-06-25T10:41:38Z</time>
      </trkpt>
      <trkpt lat="44.56809" lon="3.08452">
        <ele>1450.469</ele>
        <time>2011-06-25T10:41:56Z</time>
      </trkpt>
      <trkpt lat="44.56802" lon="3.08447">
        <ele>1452.323</ele>
        <time>2011-06-25T10:42:16Z</time>
      </trkpt>
      <trkpt lat="44.56794" lon="3.08441">
        <ele>1452.964</ele>
        <time>2011-06-25T10:42:57Z</time>
      </trkpt>
      <trkpt lat="44.56787" lon="3.08433">
        <ele>1453.918</ele>
        <time>2011-06-25T10:43:08Z</time>
      </trkpt>
      <trkpt lat="44.56777" lon="3.08425">
        <ele>1454.665</ele>
        <time>2011-06-25T10:43:40Z</time>
      </trkpt>
      <trkpt lat="44.56766" lon="3.0842">
        <ele>1455</ele>
        <time>2011-06-25T10:43:53Z</time>
      </trkpt>
      <trkpt lat="44.56765" lon="3.08408">
        <ele>1455.166</ele>
        <time>2011-06-25T10:46:08Z</time>
      </trkpt>
      <trkpt lat="44.5676" lon="3.08395">
        <ele>1456.139</ele>
        <time>2011-06-25T10:46:17Z</time>
      </trkpt>
      <trkpt lat="44.56753" lon="3.08383">
        <ele>1458.096</ele>
        <time>2011-06-25T10:46:27Z</time>
      </trkpt>
      <trkpt lat="44.56748" lon="3.08371">
        <ele>1458.58</ele>
        <time>2011-06-25T10:46:37Z</time>
      </trkpt>
      <trkpt lat="44.56742" lon="3.08359">
        <ele>1458.736</ele>
        <time>2011-06-25T10:46:46Z</time>
      </trkpt>
      <trkpt lat="44.56737" lon="3.08348">
        <ele>1459.51</ele>
        <time>2011-06-25T10:46:55Z</time>
      </trkpt>
      <trkpt lat="44.56732" lon="3.08339">
        <ele>1460.201</ele>
        <time>2011-06-25T10:47:04Z</time>
      </trkpt>
      <trkpt lat="44.56727" lon="3.0833">
        <ele>1461.003</ele>
        <time>2011-06-25T10:47:14Z</time>
      </trkpt>
      <trkpt lat="44.56719" lon="3.08318">
        <ele>1461.904</ele>
        <time>2011-06-25T10:47:28Z</time>
      </trkpt>
      <trkpt lat="44.56715" lon="3.08306">
        <ele>1463.624</ele>
        <time>2011-06-25T10:47:38Z</time>
      </trkpt>
      <trkpt lat="44.56711" lon="3.08297">
        <ele>1464.323</ele>
        <time>2011-06-25T10:47:48Z</time>
      </trkpt>
      <trkpt lat="44.56705" lon="3.08284">
        <ele>1465.454</ele>
        <time>2011-06-25T10:47:58Z</time>
      </trkpt>
      <trkpt lat="44.56702" lon="3.08274">
        <ele>1466.424</ele>
        <time>2011-06-25T10:48:08Z</time>
      </trkpt>
      <trkpt lat="44.56697" lon="3.08262">
        <ele>1466.995</ele>
        <time>2011-06-25T10:48:19Z</time>
      </trkpt>
      <trkpt lat="44.56692" lon="3.08252">
        <ele>1467.823</ele>
        <time>2011-06-25T10:48:28Z</time>
      </trkpt>
      <trkpt lat="44.56686" lon="3.08241">
        <ele>1468.137</ele>
        <time>2011-06-25T10:48:37Z</time>
      </trkpt>
      <trkpt lat="44.56682" lon="3.0823">
        <ele>1468.392</ele>
        <time>2011-06-25T10:48:47Z</time>
      </trkpt>
      <trkpt lat="44.56689" lon="3.08228">
        <ele>1467.982</ele>
        <time>2011-06-25T10:50:44Z</time>
      </trkpt>
      <trkpt lat="44.56695" lon="3.08228">
        <ele>1468.009</ele>
        <time>2011-06-25T10:57:57Z</time>
      </trkpt>
      <trkpt lat="44.56701" lon="3.08215">
        <ele>1467.555</ele>
        <time>2011-06-25T10:58:19Z</time>
      </trkpt>
      <trkpt lat="44.567" lon="3.08201">
        <ele>1466.939</ele>
        <time>2011-06-25T10:58:28Z</time>
      </trkpt>
      <trkpt lat="44.56697" lon="3.08188">
        <ele>1466.358</ele>
        <time>2011-06-25T10:58:37Z</time>
      </trkpt>
      <trkpt lat="44.56695" lon="3.08175">
        <ele>1465.792</ele>
        <time>2011-06-25T10:58:46Z</time>
      </trkpt>
      <trkpt lat="44.56693" lon="3.08159">
        <ele>1465.752</ele>
        <time>2011-06-25T10:58:57Z</time>
      </trkpt>
      <trkpt lat="44.5669" lon="3.08144">
        <ele>1465.346</ele>
        <time>2011-06-25T10:59:07Z</time>
      </trkpt>
      <trkpt lat="44.56685" lon="3.08144">
        <ele>1465.015</ele>
        <time>2011-06-25T10:59:47Z</time>
      </trkpt>
      <trkpt lat="44.56687" lon="3.0813">
        <ele>1465.461</ele>
        <time>2011-06-25T10:59:56Z</time>
      </trkpt>
      <trkpt lat="44.56687" lon="3.08116">
        <ele>1465.658</ele>
        <time>2011-06-25T11:00:05Z</time>
      </trkpt>
      <trkpt lat="44.56687" lon="3.081">
        <ele>1465.077</ele>
        <time>2011-06-25T11:00:13Z</time>
      </trkpt>
      <trkpt lat="44.56688" lon="3.08087">
        <ele>1464.809</ele>
        <time>2011-06-25T11:00:21Z</time>
      </trkpt>
      <trkpt lat="44.56693" lon="3.08075">
        <ele>1465.106</ele>
        <time>2011-06-25T11:00:30Z</time>
      </trkpt>
      <trkpt lat="44.56697" lon="3.08061">
        <ele>1464.377</ele>
        <time>2011-06-25T11:00:39Z</time>
      </trkpt>
      <trkpt lat="44.56698" lon="3.08048">
        <ele>1464.468</ele>
        <time>2011-06-25T11:00:50Z</time>
      </trkpt>
      <trkpt lat="44.56702" lon="3.08035">
        <ele>1464.568</ele>
        <time>2011-06-25T11:00:58Z</time>
      </trkpt>
      <trkpt lat="44.56705" lon="3.08024">
        <ele>1464.327</ele>
        <time>2011-06-25T11:01:07Z</time>
      </trkpt>
      <trkpt lat="44.56711" lon="3.08013">
        <ele>1464.625</ele>
        <time>2011-06-25T11:01:16Z</time>
      </trkpt>
      <trkpt lat="44.56715" lon="3.08">
        <ele>1464.113</ele>
        <time>2011-06-25T11:01:25Z</time>
      </trkpt>
      <trkpt lat="44.56719" lon="3.07989">
        <ele>1463.05</ele>
        <time>2011-06-25T11:01:34Z</time>
      </trkpt>
      <trkpt lat="44.56724" lon="3.07978">
        <ele>1462.29</ele>
        <time>2011-06-25T11:01:43Z</time>
      </trkpt>
      <trkpt lat="44.56729" lon="3.07968">
        <ele>1460.689</ele>
        <time>2011-06-25T11:01:51Z</time>
      </trkpt>
      <trkpt lat="44.56734" lon="3.07957">
        <ele>1460.905</ele>
        <time>2011-06-25T11:01:59Z</time>
      </trkpt>
      <trkpt lat="44.56737" lon="3.07945">
        <ele>1460.435</ele>
        <time>2011-06-25T11:02:07Z</time>
      </trkpt>
      <trkpt lat="44.56743" lon="3.07933">
        <ele>1460.874</ele>
        <time>2011-06-25T11:02:15Z</time>
      </trkpt>
      <trkpt lat="44.56746" lon="3.07932">
        <ele>1460.109</ele>
        <time>2011-06-25T11:02:34Z</time>
      </trkpt>
      <trkpt lat="44.56744" lon="3.07932">
        <ele>1459.775</ele>
        <time>2011-06-25T11:02:48Z</time>
      </trkpt>
      <trkpt lat="44.56749" lon="3.07921">
        <ele>1459.753</ele>
        <time>2011-06-25T11:02:56Z</time>
      </trkpt>
      <trkpt lat="44.56754" lon="3.07908">
        <ele>1458.66</ele>
        <time>2011-06-25T11:03:04Z</time>
      </trkpt>
      <trkpt lat="44.56759" lon="3.07896">
        <ele>1458.268</ele>
        <time>2011-06-25T11:03:12Z</time>
      </trkpt>
      <trkpt lat="44.56766" lon="3.07885">
        <ele>1457.56</ele>
        <time>2011-06-25T11:03:19Z</time>
      </trkpt>
      <trkpt lat="44.56773" lon="3.07875">
        <ele>1456.414</ele>
        <time>2011-06-25T11:03:27Z</time>
      </trkpt>
      <trkpt lat="44.56777" lon="3.07863">
        <ele>1455.279</ele>
        <time>2011-06-25T11:03:36Z</time>
      </trkpt>
      <trkpt lat="44.56782" lon="3.0785">
        <ele>1456.039</ele>
        <time>2011-06-25T11:03:44Z</time>
      </trkpt>
      <trkpt lat="44.56787" lon="3.07841">
        <ele>1455.248</ele>
        <time>2011-06-25T11:03:53Z</time>
      </trkpt>
      <trkpt lat="44.56793" lon="3.07831">
        <ele>1454.638</ele>
        <time>2011-06-25T11:04:02Z</time>
      </trkpt>
      <trkpt lat="44.568" lon="3.0782">
        <ele>1453.142</ele>
        <time>2011-06-25T11:04:10Z</time>
      </trkpt>
      <trkpt lat="44.56804" lon="3.0781">
        <ele>1452.85</ele>
        <time>2011-06-25T11:04:19Z</time>
      </trkpt>
      <trkpt lat="44.56808" lon="3.07796">
        <ele>1453.035</ele>
        <time>2011-06-25T11:04:28Z</time>
      </trkpt>
      <trkpt lat="44.56811" lon="3.07784">
        <ele>1453.107</ele>
        <time>2011-06-25T11:04:44Z</time>
      </trkpt>
      <trkpt lat="44.56812" lon="3.0777">
        <ele>1452.047</ele>
        <time>2011-06-25T11:04:52Z</time>
      </trkpt>
      <trkpt lat="44.56812" lon="3.07756">
        <ele>1451.294</ele>
        <time>2011-06-25T11:05:00Z</time>
      </trkpt>
      <trkpt lat="44.56814" lon="3.07742">
        <ele>1451.353</ele>
        <time>2011-06-25T11:05:08Z</time>
      </trkpt>
      <trkpt lat="44.56816" lon="3.07731">
        <ele>1451.8</ele>
        <time>2011-06-25T11:05:16Z</time>
      </trkpt>
      <trkpt lat="44.56822" lon="3.07723">
        <ele>1450.622</ele>
        <time>2011-06-25T11:05:24Z</time>
      </trkpt>
      <trkpt lat="44.56829" lon="3.07712">
        <ele>1450.08</ele>
        <time>2011-06-25T11:05:33Z</time>
      </trkpt>
      <trkpt lat="44.56834" lon="3.077">
        <ele>1448.634</ele>
        <time>2011-06-25T11:05:43Z</time>
      </trkpt>
      <trkpt lat="44.56843" lon="3.07697">
        <ele>1447.375</ele>
        <time>2011-06-25T11:06:13Z</time>
      </trkpt>
      <trkpt lat="44.56836" lon="3.07698">
        <ele>1448.018</ele>
        <time>2011-06-25T11:06:44Z</time>
      </trkpt>
      <trkpt lat="44.56833" lon="3.07696">
        <ele>1448.516</ele>
        <time>2011-06-25T11:08:49Z</time>
      </trkpt>
      <trkpt lat="44.56832" lon="3.07683">
        <ele>1448.177</ele>
        <time>2011-06-25T11:09:03Z</time>
      </trkpt>
      <trkpt lat="44.56826" lon="3.07671">
        <ele>1448.636</ele>
        <time>2011-06-25T11:09:12Z</time>
      </trkpt>
      <trkpt lat="44.56826" lon="3.07656">
        <ele>1449.744</ele>
        <time>2011-06-25T11:09:21Z</time>
      </trkpt>
      <trkpt lat="44.56822" lon="3.07644">
        <ele>1450.831</ele>
        <time>2011-06-25T11:09:31Z</time>
      </trkpt>
      <trkpt lat="44.5682" lon="3.0763">
        <ele>1450.652</ele>
        <time>2011-06-25T11:09:41Z</time>
      </trkpt>
      <trkpt lat="44.56819" lon="3.07617">
        <ele>1450.205</ele>
        <time>2011-06-25T11:09:49Z</time>
      </trkpt>
      <trkpt lat="44.56817" lon="3.07604">
        <ele>1451.632</ele>
        <time>2011-06-25T11:09:59Z</time>
      </trkpt>
      <trkpt lat="44.56814" lon="3.07592">
        <ele>1452.735</ele>
        <time>2011-06-25T11:10:09Z</time>
      </trkpt>
      <trkpt lat="44.56806" lon="3.07584">
        <ele>1452.65</ele>
        <time>2011-06-25T11:10:19Z</time>
      </trkpt>
      <trkpt lat="44.56796" lon="3.07577">
        <ele>1452.925</ele>
        <time>2011-06-25T11:10:28Z</time>
      </trkpt>
      <trkpt lat="44.56788" lon="3.07573">
        <ele>1454.335</ele>
        <time>2011-06-25T11:10:37Z</time>
      </trkpt>
      <trkpt lat="44.56782" lon="3.07563">
        <ele>1453.95</ele>
        <time>2011-06-25T11:10:46Z</time>
      </trkpt>
      <trkpt lat="44.56775" lon="3.07553">
        <ele>1454.258</ele>
        <time>2011-06-25T11:10:55Z</time>
      </trkpt>
      <trkpt lat="44.56767" lon="3.07545">
        <ele>1454.16</ele>
        <time>2011-06-25T11:11:02Z</time>
      </trkpt>
      <trkpt lat="44.56762" lon="3.07534">
        <ele>1453.91</ele>
        <time>2011-06-25T11:11:10Z</time>
      </trkpt>
      <trkpt lat="44.56756" lon="3.07523">
        <ele>1452.911</ele>
        <time>2011-06-25T11:11:18Z</time>
      </trkpt>
      <trkpt lat="44.56753" lon="3.07513">
        <ele>1453.217</ele>
        <time>2011-06-25T11:11:26Z</time>
      </trkpt>
      <trkpt lat="44.5675" lon="3.075">
        <ele>1453.715</ele>
        <time>2011-06-25T11:11:33Z</time>
      </trkpt>
      <trkpt lat="44.56748" lon="3.07488">
        <ele>1454.32</ele>
        <time>2011-06-25T11:11:40Z</time>
      </trkpt>
      <trkpt lat="44.5675" lon="3.07474">
        <ele>1453.365</ele>
        <time>2011-06-25T11:11:48Z</time>
      </trkpt>
      <trkpt lat="44.56751" lon="3.07466">
        <ele>1453.694</ele>
        <time>2011-06-25T11:12:04Z</time>
      </trkpt>
      <trkpt lat="44.56755" lon="3.07453">
        <ele>1453.939</ele>
        <time>2011-06-25T11:12:13Z</time>
      </trkpt>
      <trkpt lat="44.56756" lon="3.07439">
        <ele>1451.724</ele>
        <time>2011-06-25T11:12:22Z</time>
      </trkpt>
      <trkpt lat="44.56758" lon="3.07422">
        <ele>1451.517</ele>
        <time>2011-06-25T11:12:32Z</time>
      </trkpt>
      <trkpt lat="44.56757" lon="3.07411">
        <ele>1450.337</ele>
        <time>2011-06-25T11:12:40Z</time>
      </trkpt>
      <trkpt lat="44.56757" lon="3.07396">
        <ele>1450.86</ele>
        <time>2011-06-25T11:12:51Z</time>
      </trkpt>
      <trkpt lat="44.56761" lon="3.07392">
        <ele>1450.548</ele>
        <time>2011-06-25T11:13:13Z</time>
      </trkpt>
      <trkpt lat="44.56756" lon="3.07379">
        <ele>1449.822</ele>
        <time>2011-06-25T11:13:27Z</time>
      </trkpt>
      <trkpt lat="44.56757" lon="3.07379">
        <ele>1449.533</ele>
        <time>2011-06-25T11:40:52Z</time>
      </trkpt>
      <trkpt lat="44.56758" lon="3.07379">
        <ele>1448.861</ele>
        <time>2011-06-25T12:26:37Z</time>
      </trkpt>
      <trkpt lat="44.5676" lon="3.0738">
        <ele>1447.386</ele>
        <time>2011-06-25T12:44:18Z</time>
      </trkpt>
      <trkpt lat="44.56762" lon="3.07366">
        <ele>1447.571</ele>
        <time>2011-06-25T12:44:44Z</time>
      </trkpt>
      <trkpt lat="44.56764" lon="3.07352">
        <ele>1447.148</ele>
        <time>2011-06-25T12:44:59Z</time>
      </trkpt>
      <trkpt lat="44.56767" lon="3.07339">
        <ele>1447.251</ele>
        <time>2011-06-25T12:45:09Z</time>
      </trkpt>
      <trkpt lat="44.5677" lon="3.07327">
        <ele>1445.607</ele>
        <time>2011-06-25T12:45:18Z</time>
      </trkpt>
      <trkpt lat="44.56773" lon="3.07316">
        <ele>1446.227</ele>
        <time>2011-06-25T12:45:27Z</time>
      </trkpt>
      <trkpt lat="44.56778" lon="3.07302">
        <ele>1445.438</ele>
        <time>2011-06-25T12:45:36Z</time>
      </trkpt>
      <trkpt lat="44.56782" lon="3.07292">
        <ele>1444.986</ele>
        <time>2011-06-25T12:45:46Z</time>
      </trkpt>
      <trkpt lat="44.5678" lon="3.0728">
        <ele>1443.764</ele>
        <time>2011-06-25T12:45:58Z</time>
      </trkpt>
      <trkpt lat="44.56782" lon="3.0728">
        <ele>1443.951</ele>
        <time>2011-06-25T12:46:17Z</time>
      </trkpt>
      <trkpt lat="44.56788" lon="3.0727">
        <ele>1444.337</ele>
        <time>2011-06-25T12:46:35Z</time>
      </trkpt>
      <trkpt lat="44.56798" lon="3.07261">
        <ele>1444.735</ele>
        <time>2011-06-25T12:46:44Z</time>
      </trkpt>
      <trkpt lat="44.56805" lon="3.07249">
        <ele>1444.822</ele>
        <time>2011-06-25T12:46:53Z</time>
      </trkpt>
      <trkpt lat="44.56809" lon="3.07237">
        <ele>1445.261</ele>
        <time>2011-06-25T12:47:01Z</time>
      </trkpt>
      <trkpt lat="44.56815" lon="3.07223">
        <ele>1445.224</ele>
        <time>2011-06-25T12:47:10Z</time>
      </trkpt>
      <trkpt lat="44.56822" lon="3.07214">
        <ele>1446.247</ele>
        <time>2011-06-25T12:47:19Z</time>
      </trkpt>
      <trkpt lat="44.56831" lon="3.07203">
        <ele>1446.098</ele>
        <time>2011-06-25T12:47:31Z</time>
      </trkpt>
      <trkpt lat="44.56839" lon="3.07195">
        <ele>1445.547</ele>
        <time>2011-06-25T12:47:38Z</time>
      </trkpt>
      <trkpt lat="44.56848" lon="3.0719">
        <ele>1445.544</ele>
        <time>2011-06-25T12:47:45Z</time>
      </trkpt>
      <trkpt lat="44.56857" lon="3.07185">
        <ele>1445.159</ele>
        <time>2011-06-25T12:47:53Z</time>
      </trkpt>
      <trkpt lat="44.56866" lon="3.07175">
        <ele>1444.849</ele>
        <time>2011-06-25T12:48:01Z</time>
      </trkpt>
      <trkpt lat="44.56874" lon="3.07169">
        <ele>1445.513</ele>
        <time>2011-06-25T12:48:09Z</time>
      </trkpt>
      <trkpt lat="44.56882" lon="3.07161">
        <ele>1444.942</ele>
        <time>2011-06-25T12:48:17Z</time>
      </trkpt>
      <trkpt lat="44.56886" lon="3.07149">
        <ele>1444.235</ele>
        <time>2011-06-25T12:48:26Z</time>
      </trkpt>
      <trkpt lat="44.56889" lon="3.07138">
        <ele>1444.428</ele>
        <time>2011-06-25T12:48:34Z</time>
      </trkpt>
      <trkpt lat="44.56894" lon="3.07123">
        <ele>1444.362</ele>
        <time>2011-06-25T12:48:44Z</time>
      </trkpt>
      <trkpt lat="44.56898" lon="3.07123">
        <ele>1443.957</ele>
        <time>2011-06-25T12:49:19Z</time>
      </trkpt>
      <trkpt lat="44.56908" lon="3.07115">
        <ele>1443.569</ele>
        <time>2011-06-25T12:49:27Z</time>
      </trkpt>
      <trkpt lat="44.56915" lon="3.0711">
        <ele>1443.191</ele>
        <time>2011-06-25T12:49:36Z</time>
      </trkpt>
      <trkpt lat="44.56924" lon="3.07101">
        <ele>1443.081</ele>
        <time>2011-06-25T12:49:44Z</time>
      </trkpt>
      <trkpt lat="44.56934" lon="3.07097">
        <ele>1442.508</ele>
        <time>2011-06-25T12:49:52Z</time>
      </trkpt>
      <trkpt lat="44.56942" lon="3.07091">
        <ele>1442.645</ele>
        <time>2011-06-25T12:50:00Z</time>
      </trkpt>
      <trkpt lat="44.56949" lon="3.07087">
        <ele>1441.797</ele>
        <time>2011-06-25T12:50:07Z</time>
      </trkpt>
      <trkpt lat="44.56958" lon="3.07083">
        <ele>1440.902</ele>
        <time>2011-06-25T12:50:15Z</time>
      </trkpt>
      <trkpt lat="44.56968" lon="3.0708">
        <ele>1440.55</ele>
        <time>2011-06-25T12:50:24Z</time>
      </trkpt>
      <trkpt lat="44.56976" lon="3.07076">
        <ele>1441.113</ele>
        <time>2011-06-25T12:50:35Z</time>
      </trkpt>
      <trkpt lat="44.56985" lon="3.07074">
        <ele>1441.832</ele>
        <time>2011-06-25T12:50:44Z</time>
      </trkpt>
      <trkpt lat="44.56995" lon="3.07068">
        <ele>1443.225</ele>
        <time>2011-06-25T12:50:53Z</time>
      </trkpt>
      <trkpt lat="44.57003" lon="3.07059">
        <ele>1443.77</ele>
        <time>2011-06-25T12:51:03Z</time>
      </trkpt>
      <trkpt lat="44.57009" lon="3.07052">
        <ele>1444.491</ele>
        <time>2011-06-25T12:51:12Z</time>
      </trkpt>
      <trkpt lat="44.57014" lon="3.07041">
        <ele>1443.985</ele>
        <time>2011-06-25T12:51:21Z</time>
      </trkpt>
      <trkpt lat="44.57021" lon="3.07029">
        <ele>1443.895</ele>
        <time>2011-06-25T12:51:30Z</time>
      </trkpt>
      <trkpt lat="44.57031" lon="3.07019">
        <ele>1443.356</ele>
        <time>2011-06-25T12:51:40Z</time>
      </trkpt>
      <trkpt lat="44.57042" lon="3.0701">
        <ele>1442.814</ele>
        <time>2011-06-25T12:51:50Z</time>
      </trkpt>
      <trkpt lat="44.57055" lon="3.07005">
        <ele>1442.026</ele>
        <time>2011-06-25T12:52:06Z</time>
      </trkpt>
      <trkpt lat="44.57073" lon="3.07">
        <ele>1441.149</ele>
        <time>2011-06-25T12:52:20Z</time>
      </trkpt>
      <trkpt lat="44.57084" lon="3.06993">
        <ele>1440.834</ele>
        <time>2011-06-25T12:52:31Z</time>
      </trkpt>
      <trkpt lat="44.57095" lon="3.06985">
        <ele>1439.106</ele>
        <time>2011-06-25T12:52:42Z</time>
      </trkpt>
      <trkpt lat="44.57105" lon="3.06981">
        <ele>1437.759</ele>
        <time>2011-06-25T12:52:55Z</time>
      </trkpt>
      <trkpt lat="44.57118" lon="3.06978">
        <ele>1436.564</ele>
        <time>2011-06-25T12:53:11Z</time>
      </trkpt>
      <trkpt lat="44.57133" lon="3.06974">
        <ele>1435.401</ele>
        <time>2011-06-25T12:53:24Z</time>
      </trkpt>
      <trkpt lat="44.57146" lon="3.06969">
        <ele>1435.581</ele>
        <time>2011-06-25T12:53:35Z</time>
      </trkpt>
      <trkpt lat="44.57158" lon="3.06961">
        <ele>1435.204</ele>
        <time>2011-06-25T12:53:45Z</time>
      </trkpt>
      <trkpt lat="44.57169" lon="3.06955">
        <ele>1435.905</ele>
        <time>2011-06-25T12:53:53Z</time>
      </trkpt>
      <trkpt lat="44.57176" lon="3.06946">
        <ele>1434.677</ele>
        <time>2011-06-25T12:54:03Z</time>
      </trkpt>
      <trkpt lat="44.57186" lon="3.0694">
        <ele>1434.504</ele>
        <time>2011-06-25T12:54:13Z</time>
      </trkpt>
      <trkpt lat="44.57198" lon="3.06933">
        <ele>1433.999</ele>
        <time>2011-06-25T12:54:23Z</time>
      </trkpt>
      <trkpt lat="44.57205" lon="3.0692">
        <ele>1433.042</ele>
        <time>2011-06-25T12:54:34Z</time>
      </trkpt>
      <trkpt lat="44.57213" lon="3.06911">
        <ele>1432.1</ele>
        <time>2011-06-25T12:54:44Z</time>
      </trkpt>
      <trkpt lat="44.57225" lon="3.06909">
        <ele>1429.926</ele>
        <time>2011-06-25T12:54:55Z</time>
      </trkpt>
      <trkpt lat="44.57236" lon="3.06908">
        <ele>1427.823</ele>
        <time>2011-06-25T12:55:10Z</time>
      </trkpt>
      <trkpt lat="44.57245" lon="3.06901">
        <ele>1426.279</ele>
        <time>2011-06-25T12:55:26Z</time>
      </trkpt>
      <trkpt lat="44.5726" lon="3.06888">
        <ele>1424.426</ele>
        <time>2011-06-25T12:55:40Z</time>
      </trkpt>
      <trkpt lat="44.57268" lon="3.06882">
        <ele>1422.077</ele>
        <time>2011-06-25T12:55:52Z</time>
      </trkpt>
      <trkpt lat="44.57283" lon="3.0688">
        <ele>1420.693</ele>
        <time>2011-06-25T12:56:08Z</time>
      </trkpt>
      <trkpt lat="44.57298" lon="3.06875">
        <ele>1419.646</ele>
        <time>2011-06-25T12:56:23Z</time>
      </trkpt>
      <trkpt lat="44.57315" lon="3.06865">
        <ele>1418.733</ele>
        <time>2011-06-25T12:56:39Z</time>
      </trkpt>
      <trkpt lat="44.57337" lon="3.06855">
        <ele>1418.793</ele>
        <time>2011-06-25T12:57:00Z</time>
      </trkpt>
      <trkpt lat="44.57354" lon="3.06848">
        <ele>1417.602</ele>
        <time>2011-06-25T12:57:14Z</time>
      </trkpt>
      <trkpt lat="44.57373" lon="3.06839">
        <ele>1414.96</ele>
        <time>2011-06-25T12:57:40Z</time>
      </trkpt>
      <trkpt lat="44.57384" lon="3.06824">
        <ele>1412.81</ele>
        <time>2011-06-25T12:57:53Z</time>
      </trkpt>
      <trkpt lat="44.57391" lon="3.06806">
        <ele>1412.83</ele>
        <time>2011-06-25T12:58:06Z</time>
      </trkpt>
      <trkpt lat="44.57396" lon="3.06788">
        <ele>1413.046</ele>
        <time>2011-06-25T12:58:20Z</time>
      </trkpt>
      <trkpt lat="44.57401" lon="3.06769">
        <ele>1411.914</ele>
        <time>2011-06-25T12:58:34Z</time>
      </trkpt>
      <trkpt lat="44.57407" lon="3.06752">
        <ele>1410.607</ele>
        <time>2011-06-25T12:58:48Z</time>
      </trkpt>
      <trkpt lat="44.57416" lon="3.06737">
        <ele>1408.278</ele>
        <time>2011-06-25T12:59:02Z</time>
      </trkpt>
      <trkpt lat="44.5743" lon="3.06727">
        <ele>1407.32</ele>
        <time>2011-06-25T12:59:15Z</time>
      </trkpt>
      <trkpt lat="44.57439" lon="3.06722">
        <ele>1407.14</ele>
        <time>2011-06-25T12:59:24Z</time>
      </trkpt>
      <trkpt lat="44.57447" lon="3.06715">
        <ele>1406.447</ele>
        <time>2011-06-25T12:59:33Z</time>
      </trkpt>
      <trkpt lat="44.5747" lon="3.0671">
        <ele>1406.007</ele>
        <time>2011-06-25T12:59:54Z</time>
      </trkpt>
      <trkpt lat="44.57484" lon="3.06696">
        <ele>1406.158</ele>
        <time>2011-06-25T13:00:07Z</time>
      </trkpt>
      <trkpt lat="44.57493" lon="3.0669">
        <ele>1405.632</ele>
        <time>2011-06-25T13:00:21Z</time>
      </trkpt>
      <trkpt lat="44.57507" lon="3.06687">
        <ele>1404.282</ele>
        <time>2011-06-25T13:00:31Z</time>
      </trkpt>
      <trkpt lat="44.57517" lon="3.06677">
        <ele>1402.854</ele>
        <time>2011-06-25T13:00:42Z</time>
      </trkpt>
      <trkpt lat="44.57527" lon="3.06666">
        <ele>1401.488</ele>
        <time>2011-06-25T13:00:54Z</time>
      </trkpt>
      <trkpt lat="44.57537" lon="3.06662">
        <ele>1399.096</ele>
        <time>2011-06-25T13:01:07Z</time>
      </trkpt>
      <trkpt lat="44.5754" lon="3.06664">
        <ele>1398.64</ele>
        <time>2011-06-25T13:02:29Z</time>
      </trkpt>
      <trkpt lat="44.57549" lon="3.06656">
        <ele>1397.781</ele>
        <time>2011-06-25T13:02:40Z</time>
      </trkpt>
      <trkpt lat="44.57557" lon="3.06644">
        <ele>1396.491</ele>
        <time>2011-06-25T13:02:52Z</time>
      </trkpt>
      <trkpt lat="44.57568" lon="3.06639">
        <ele>1395.8</ele>
        <time>2011-06-25T13:03:02Z</time>
      </trkpt>
      <trkpt lat="44.57568" lon="3.06636">
        <ele>1396.782</ele>
        <time>2011-06-25T13:04:00Z</time>
      </trkpt>
      <trkpt lat="44.57579" lon="3.06628">
        <ele>1395.428</ele>
        <time>2011-06-25T13:04:18Z</time>
      </trkpt>
      <trkpt lat="44.57588" lon="3.0662">
        <ele>1394.513</ele>
        <time>2011-06-25T13:04:28Z</time>
      </trkpt>
      <trkpt lat="44.57599" lon="3.06612">
        <ele>1394.17</ele>
        <time>2011-06-25T13:04:37Z</time>
      </trkpt>
      <trkpt lat="44.57608" lon="3.06604">
        <ele>1393.231</ele>
        <time>2011-06-25T13:04:46Z</time>
      </trkpt>
      <trkpt lat="44.57615" lon="3.06596">
        <ele>1392.884</ele>
        <time>2011-06-25T13:04:54Z</time>
      </trkpt>
      <trkpt lat="44.57623" lon="3.06589">
        <ele>1391.946</ele>
        <time>2011-06-25T13:05:02Z</time>
      </trkpt>
      <trkpt lat="44.57631" lon="3.06581">
        <ele>1391.897</ele>
        <time>2011-06-25T13:05:11Z</time>
      </trkpt>
      <trkpt lat="44.57638" lon="3.06591">
        <ele>1391.3</ele>
        <time>2011-06-25T13:05:20Z</time>
      </trkpt>
      <trkpt lat="44.57649" lon="3.06586">
        <ele>1391.369</ele>
        <time>2011-06-25T13:05:30Z</time>
      </trkpt>
      <trkpt lat="44.57657" lon="3.06582">
        <ele>1388.252</ele>
        <time>2011-06-25T13:05:56Z</time>
      </trkpt>
      <trkpt lat="44.57664" lon="3.06575">
        <ele>1388.563</ele>
        <time>2011-06-25T13:06:06Z</time>
      </trkpt>
      <trkpt lat="44.57673" lon="3.06565">
        <ele>1388.796</ele>
        <time>2011-06-25T13:06:15Z</time>
      </trkpt>
      <trkpt lat="44.5768" lon="3.06557">
        <ele>1388.447</ele>
        <time>2011-06-25T13:06:24Z</time>
      </trkpt>
      <trkpt lat="44.57689" lon="3.06547">
        <ele>1388.071</ele>
        <time>2011-06-25T13:06:33Z</time>
      </trkpt>
      <trkpt lat="44.57698" lon="3.06539">
        <ele>1387.952</ele>
        <time>2011-06-25T13:06:51Z</time>
      </trkpt>
      <trkpt lat="44.57704" lon="3.06531">
        <ele>1387.273</ele>
        <time>2011-06-25T13:07:01Z</time>
      </trkpt>
      <trkpt lat="44.5771" lon="3.06522">
        <ele>1387.09</ele>
        <time>2011-06-25T13:07:10Z</time>
      </trkpt>
      <trkpt lat="44.57717" lon="3.06512">
        <ele>1386.406</ele>
        <time>2011-06-25T13:07:18Z</time>
      </trkpt>
      <trkpt lat="44.57726" lon="3.06505">
        <ele>1385.988</ele>
        <time>2011-06-25T13:07:27Z</time>
      </trkpt>
      <trkpt lat="44.57737" lon="3.06496">
        <ele>1385.453</ele>
        <time>2011-06-25T13:07:38Z</time>
      </trkpt>
      <trkpt lat="44.57748" lon="3.06481">
        <ele>1383.978</ele>
        <time>2011-06-25T13:07:50Z</time>
      </trkpt>
      <trkpt lat="44.57755" lon="3.06473">
        <ele>1382.843</ele>
        <time>2011-06-25T13:07:58Z</time>
      </trkpt>
      <trkpt lat="44.57764" lon="3.06463">
        <ele>1382.373</ele>
        <time>2011-06-25T13:08:07Z</time>
      </trkpt>
      <trkpt lat="44.5777" lon="3.06455">
        <ele>1381.438</ele>
        <time>2011-06-25T13:08:15Z</time>
      </trkpt>
      <trkpt lat="44.57776" lon="3.06447">
        <ele>1380.739</ele>
        <time>2011-06-25T13:08:23Z</time>
      </trkpt>
      <trkpt lat="44.57782" lon="3.06438">
        <ele>1380.627</ele>
        <time>2011-06-25T13:08:31Z</time>
      </trkpt>
      <trkpt lat="44.57791" lon="3.06436">
        <ele>1379.265</ele>
        <time>2011-06-25T13:08:40Z</time>
      </trkpt>
      <trkpt lat="44.57798" lon="3.06421">
        <ele>1379.192</ele>
        <time>2011-06-25T13:08:52Z</time>
      </trkpt>
      <trkpt lat="44.57805" lon="3.0641">
        <ele>1376.178</ele>
        <time>2011-06-25T13:09:01Z</time>
      </trkpt>
      <trkpt lat="44.57813" lon="3.06403">
        <ele>1376.24</ele>
        <time>2011-06-25T13:09:11Z</time>
      </trkpt>
      <trkpt lat="44.57814" lon="3.06402">
        <ele>1374.574</ele>
        <time>2011-06-25T13:09:15Z</time>
      </trkpt>
    </trkseg>
  </trk>
</gpx>